Time;durP1;ratioP1;P1;durP2;ratioP2;P2;SDS_P1;SDS_P2;PMS_P1;PMS_P2;Temp;Humidity;BMP_temperature;BMP_pressure;BME280_temperature;BME280_humidity;BME280_pressure;Samples;Min_cycle;Max_cycle;Signal;HPM_P1;HPM_P2
2024/01/02 00:01:55;;;;;;;15.07;6.60;;;;;;;-5.35;99.62;99999.63;5036873;28;20041;-62
2024/01/02 00:04:25;;;;;;;16.92;6.72;;;;;;;-5.34;99.08;99986.09;5046345;28;20120;-62
2024/01/02 00:06:57;;;;;;;13.77;6.25;;;;;;;-5.41;98.78;99984.09;5036131;28;21178;-61
2024/01/02 00:09:28;;;;;;;15.07;6.40;;;;;;;-5.32;98.68;99984.47;5046152;28;20098;-61
2024/01/02 00:11:57;;;;;;;16.13;6.43;;;;;;;-5.33;98.18;99975.09;5036057;28;20150;-62
2024/01/02 00:14:28;;;;;;;12.40;6.20;;;;;;;-5.29;98.40;99966.78;5051422;28;20097;-61
2024/01/02 00:16:59;;;;;;;18.80;5.80;;;;;;;-5.16;98.91;99963.09;5035422;28;20056;-62
2024/01/02 00:19:29;;;;;;;19.38;6.03;;;;;;;-5.02;98.92;99958.53;5065489;28;20044;-61
2024/01/02 00:22:01;;;;;;;13.68;6.13;;;;;;;-4.93;98.74;99964.03;5054927;28;20052;-63
2024/01/02 00:24:32;;;;;;;12.70;6.30;;;;;;;-4.79;98.52;99962.91;5065283;28;20508;-62
2024/01/02 00:27:03;;;;;;;14.85;6.05;;;;;;;-4.66;98.40;99958.31;5055723;28;20055;-62
2024/01/02 00:29:33;;;;;;;14.55;5.50;;;;;;;-4.56;98.58;99960.41;5065974;28;20097;-61
2024/01/02 00:32:04;;;;;;;12.50;5.80;;;;;;;-4.56;97.86;99960.41;5054528;28;20052;-61
2024/01/02 00:34:34;;;;;;;13.00;5.68;;;;;;;-4.49;97.73;99959.84;5064095;28;20105;-62
2024/01/02 00:37:06;;;;;;;11.73;5.43;;;;;;;-4.42;97.96;99953.28;5066626;28;20159;-61
2024/01/02 00:39:37;;;;;;;12.52;5.18;;;;;;;-4.46;97.93;99954.84;5056520;28;20117;-62
2024/01/02 00:42:07;;;;;;;12.10;5.38;;;;;;;-4.73;96.52;99948.66;5066521;28;20502;-62
2024/01/02 00:44:39;;;;;;;14.90;6.38;;;;;;;-4.96;96.25;99956.25;5043507;28;20290;-60
2024/01/02 00:47:10;;;;;;;8.57;4.68;;;;;;;-5.09;96.19;99959.09;5045989;28;20062;-64
2024/01/02 00:49:40;;;;;;;12.85;5.07;;;;;;;-5.00;97.02;99951.84;5034981;28;20052;-62
2024/01/02 00:52:12;;;;;;;12.10;5.10;;;;;;;-4.89;97.31;99958.25;5045073;28;20056;-62
2024/01/02 00:54:43;;;;;;;13.30;6.05;;;;;;;-4.69;98.25;99950.50;5034672;28;20143;-60
2024/01/02 00:57:13;;;;;;;21.50;6.78;;;;;;;-4.53;98.34;99955.41;5044331;28;20131;-60
2024/01/02 00:59:43;;;;;;;19.15;8.77;;;;;;;-4.58;98.05;99946.72;5034568;28;20153;-61
2024/01/02 01:02:14;;;;;;;17.30;7.25;;;;;;;-4.52;98.13;99941.84;5045037;28;20044;-61
2024/01/02 01:04:45;;;;;;;15.30;6.13;;;;;;;-4.41;97.54;99939.72;5035038;28;20295;-61
2024/01/02 01:07:17;;;;;;;11.73;5.50;;;;;;;-4.46;97.08;99896.19;5045153;28;20113;-60
2024/01/02 01:09:48;;;;;;;16.52;5.45;;;;;;;-4.10;97.00;99931.53;5063043;28;20059;-60
2024/01/02 01:12:18;;;;;;;14.77;5.93;;;;;;;-3.97;96.65;99914.97;5046008;28;20059;-60
2024/01/02 01:14:48;;;;;;;12.88;6.25;;;;;;;-3.74;96.59;99915.81;5047928;28;20048;-61
2024/01/02 01:17:19;;;;;;;12.82;6.03;;;;;;;-3.54;96.45;99909.72;5064573;28;20055;-60
2024/01/02 01:19:50;;;;;;;12.30;6.57;;;;;;;-3.40;95.48;99905.06;5054850;28;20052;-59
2024/01/02 01:22:22;;;;;;;12.68;7.10;;;;;;;-3.44;94.91;99885.38;5064971;28;20492;-60
2024/01/02 01:24:52;;;;;;;15.43;7.90;;;;;;;-3.31;94.24;99899.41;5053788;28;20154;-60
2024/01/02 01:27:22;;;;;;;14.02;7.72;;;;;;;-3.34;93.59;99887.41;5064545;28;20457;-61
2024/01/02 01:29:53;;;;;;;15.73;7.30;;;;;;;-3.29;93.29;99879.91;5053960;28;20055;-60
2024/01/02 01:32:23;;;;;;;14.57;6.80;;;;;;;-3.40;92.61;99853.09;5064519;28;20048;-60
2024/01/02 01:34:54;;;;;;;12.70;6.82;;;;;;;-3.35;92.27;99861.78;5046632;28;20054;-62
2024/01/02 01:37:26;;;;;;;15.27;7.82;;;;;;;-3.30;93.05;99868.78;5060075;28;20079;-60
2024/01/02 01:39:57;;;;;;;17.85;8.18;;;;;;;-3.27;93.07;99858.69;5049366;28;20185;-62
2024/01/02 01:42:27;;;;;;;12.20;5.88;;;;;;;-3.17;93.54;99852.19;5058429;28;20147;-61
2024/01/02 01:44:58;;;;;;;14.07;7.10;;;;;;;-3.15;93.38;99842.84;5048175;28;20063;-61
2024/01/02 01:47:28;;;;;;;15.68;8.02;;;;;;;-3.25;92.39;99835.72;5050720;28;20140;-62
2024/01/02 01:49:59;;;;;;;15.38;6.68;;;;;;;-3.26;92.14;99828.88;5045645;28;20060;-61
2024/01/02 01:52:32;;;;;;;13.65;7.60;;;;;;;-3.11;91.72;99839.59;5059981;28;20043;-62
2024/01/02 01:55:04;;;;;;;17.25;8.52;;;;;;;-2.97;91.38;99821.25;5049295;28;20443;-60
2024/01/02 01:57:34;;;;;;;18.67;9.02;;;;;;;-3.35;90.58;99721.28;5057161;28;20141;-60
2024/01/02 02:00:06;;;;;;;18.80;9.52;;;;;;;-2.59;89.87;99813.88;5043115;28;20576;-61
2024/01/02 02:02:36;;;;;;;34.80;14.10;;;;;;;-2.26;89.75;99814.84;5049476;28;20075;-61
2024/01/02 02:05:07;;;;;;;14.75;7.72;;;;;;;-2.21;88.48;99818.38;5058851;28;20117;-62
2024/01/02 02:07:40;;;;;;;15.13;8.80;;;;;;;-2.22;87.14;99811.53;5045590;28;20071;-61
2024/01/02 02:10:11;;;;;;;19.92;9.00;;;;;;;-2.17;85.81;99792.06;5056204;28;20139;-62
2024/01/02 02:12:42;;;;;;;18.25;8.75;;;;;;;-2.33;85.02;99809.50;5049036;28;20055;-62
2024/01/02 02:15:12;;;;;;;17.48;8.63;;;;;;;-2.75;84.83;99808.28;5060086;28;20131;-60
2024/01/02 02:17:46;;;;;;;16.50;7.95;;;;;;;-2.88;85.48;99811.31;5049901;28;20058;-62
2024/01/02 02:20:17;;;;;;;20.77;9.10;;;;;;;-2.98;86.71;99809.31;5056001;28;20048;-62
2024/01/02 02:22:51;;;;;;;20.73;8.57;;;;;;;-2.88;86.83;99813.88;5049423;28;20527;-60
2024/01/02 02:25:21;;;;;;;21.90;8.20;;;;;;;-2.81;87.25;99813.25;5059717;28;20142;-60
2024/01/02 02:27:52;;;;;;;22.25;8.60;;;;;;;-2.75;86.41;99828.75;5049036;28;20141;-62
2024/01/02 02:30:22;;;;;;;15.48;7.30;;;;;;;-3.07;86.71;99836.31;5059574;28;20523;-62
2024/01/02 02:32:53;;;;;;;14.45;6.80;;;;;;;-3.40;87.54;99832.69;5049940;28;20051;-60
2024/01/02 02:35:24;;;;;;;14.38;6.38;;;;;;;-3.43;88.46;99835.13;5056034;28;20040;-61
2024/01/02 02:37:56;;;;;;;16.27;7.18;;;;;;;-3.29;88.80;99833.91;5045859;28;20052;-63
2024/01/02 02:40:28;;;;;;;18.02;6.15;;;;;;;-3.30;89.47;99832.16;5059604;28;20054;-61
2024/01/02 02:42:58;;;;;;;12.57;5.78;;;;;;;-3.49;89.01;99839.22;5048654;28;20512;-63
2024/01/02 02:45:29;;;;;;;13.60;6.15;;;;;;;-3.64;89.32;99831.06;5058951;28;20156;-61
2024/01/02 02:47:59;;;;;;;18.02;6.60;;;;;;;-3.68;89.70;99824.09;5048861;28;20044;-63
2024/01/02 02:50:30;;;;;;;13.52;7.18;;;;;;;-3.49;90.02;99826.47;5059169;28;20058;-62
2024/01/02 02:53:02;;;;;;;21.45;8.23;;;;;;;-3.40;89.90;99830.13;5045123;28;20052;-62
2024/01/02 02:55:32;;;;;;;18.88;7.90;;;;;;;-3.47;89.57;99829.94;5055624;28;20063;-61
2024/01/02 02:58:03;;;;;;;14.55;7.38;;;;;;;-3.40;90.42;99830.13;5045211;28;20133;-61
2024/01/02 03:00:34;;;;;;;17.63;7.00;;;;;;;-3.24;90.60;99827.25;5059296;28;20131;-62
2024/01/02 03:03:05;;;;;;;13.95;6.68;;;;;;;-3.18;89.92;99824.88;5048857;28;20048;-61
2024/01/02 03:05:36;;;;;;;12.68;6.47;;;;;;;-3.24;89.54;99811.91;5050658;28;20412;-61
2024/01/02 03:08:08;;;;;;;13.32;6.50;;;;;;;-3.27;89.06;99816.91;5058827;28;20052;-61
2024/01/02 03:10:39;;;;;;;13.18;6.45;;;;;;;-3.22;89.30;99820.50;5048914;28;20396;-60
2024/01/02 03:13:09;;;;;;;14.35;6.65;;;;;;;-3.14;89.02;99802.88;5058710;28;20067;-61
2024/01/02 03:15:39;;;;;;;13.23;6.40;;;;;;;-3.12;89.14;99796.97;5048908;28;20714;-61
2024/01/02 03:18:10;;;;;;;16.85;6.57;;;;;;;-3.11;88.72;99798.69;5058916;28;20144;-62
2024/01/02 03:20:41;;;;;;;18.63;6.88;;;;;;;-3.03;88.54;99796.38;5048857;28;20857;-63
2024/01/02 03:23:13;;;;;;;17.70;7.50;;;;;;;-3.00;88.55;99798.16;5054816;28;20059;-60
2024/01/02 03:25:43;;;;;;;16.45;7.75;;;;;;;-3.03;88.50;99796.38;5044790;28;20477;-60
2024/01/02 03:28:14;;;;;;;14.77;8.40;;;;;;;-2.96;88.75;99787.22;5055270;28;20476;-62
2024/01/02 03:30:44;;;;;;;16.55;7.85;;;;;;;-3.03;88.00;99787.00;5048654;28;20705;-61
2024/01/02 03:33:15;;;;;;;17.00;8.15;;;;;;;-3.07;87.38;99780.09;5058525;28;20052;-62
2024/01/02 03:35:47;;;;;;;14.73;6.05;;;;;;;-3.04;87.11;99780.19;5048699;28;20109;-60
2024/01/02 03:38:19;;;;;;;13.98;4.70;;;;;;;-3.58;85.83;99790.38;5059158;28;20048;-60
2024/01/02 03:40:50;;;;;;;10.43;4.43;;;;;;;-3.95;86.96;99789.16;5048195;28;20142;-62
2024/01/02 03:43:20;;;;;;;11.90;4.75;;;;;;;-4.14;87.76;99779.16;5055556;28;20601;-60
2024/01/02 03:45:50;;;;;;;13.07;5.13;;;;;;;-4.36;88.78;99782.63;5048274;28;20056;-60
2024/01/02 03:48:23;;;;;;;9.77;4.22;;;;;;;-4.59;89.23;99771.63;5058969;28;20083;-59
2024/01/02 03:50:53;;;;;;;9.70;4.03;;;;;;;-4.68;89.70;99778.91;5048124;28;20052;-60
2024/01/02 03:53:29;;;;;;;15.70;4.43;;;;;;;-4.62;90.32;99776.56;5058524;28;20135;-61
2024/01/02 03:56:00;;;;;;;17.95;5.07;;;;;;;-4.60;90.48;99777.50;5047841;28;20097;-59
2024/01/02 03:58:31;;;;;;;13.10;4.57;;;;;;;-4.47;90.59;99774.56;5054701;28;20709;-60
2024/01/02 04:01:02;;;;;;;14.65;4.63;;;;;;;-4.35;90.60;99780.13;5048109;28;20056;-60
2024/01/02 04:03:32;;;;;;;11.32;4.50;;;;;;;-4.23;90.35;99772.03;5055414;28;20172;-59
2024/01/02 04:06:03;;;;;;;16.52;5.32;;;;;;;-4.28;89.11;99772.69;5050412;28;20593;-61
2024/01/02 04:08:37;;;;;;;10.35;4.80;;;;;;;-4.34;89.15;99769.13;5061642;28;20101;-60
2024/01/02 04:11:07;;;;;;;8.68;4.25;;;;;;;-4.30;89.75;99769.22;5061761;28;20135;-60
2024/01/02 04:13:38;;;;;;;12.93;4.38;;;;;;;-4.15;89.97;99774.84;5051516;28;20562;-60
2024/01/02 04:16:08;;;;;;;10.68;4.00;;;;;;;-4.04;89.54;99773.56;5061466;28;20134;-60
2024/01/02 04:18:39;;;;;;;10.38;4.80;;;;;;;-3.76;89.53;99775.34;5047967;28;20071;-60
2024/01/02 04:21:09;;;;;;;22.15;4.43;;;;;;;-3.60;88.68;99774.16;5062208;28;20047;-60
2024/01/02 04:23:41;;;;;;;11.18;4.50;;;;;;;-3.59;88.03;99773.34;5048750;28;20101;-60
2024/01/02 04:26:12;;;;;;;9.90;4.30;;;;;;;-3.51;87.70;99777.00;5058089;28;20068;-60
2024/01/02 04:28:42;;;;;;;9.13;4.47;;;;;;;-3.47;87.51;99778.84;5051220;28;20633;-59
2024/01/02 04:31:13;;;;;;;11.00;4.60;;;;;;;-3.36;87.23;99775.75;5061362;28;20048;-60
2024/01/02 04:33:44;;;;;;;9.27;4.32;;;;;;;-3.41;87.01;99756.88;5050314;28;20769;-61
2024/01/02 04:36:14;;;;;;;6.68;3.88;;;;;;;-3.27;86.62;99776.03;5061016;28;20048;-61
2024/01/02 04:38:46;;;;;;;12.95;4.40;;;;;;;-3.20;86.59;99772.00;5050621;28;20476;-61
2024/01/02 04:41:18;;;;;;;9.75;4.47;;;;;;;-3.18;85.71;99781.44;5061551;28;20396;-61
2024/01/02 04:43:49;;;;;;;12.90;5.28;;;;;;;-3.55;84.94;99804.94;5051388;28;20144;-59
2024/01/02 04:46:19;;;;;;;12.32;5.05;;;;;;;-4.12;85.54;99795.38;5061536;28;20060;-59
2024/01/02 04:48:49;;;;;;;14.07;4.80;;;;;;;-4.50;87.17;99797.44;5048834;28;20170;-60
2024/01/02 04:51:20;;;;;;;14.48;5.82;;;;;;;-4.64;88.04;99801.13;5060742;28;20519;-60
2024/01/02 04:53:52;;;;;;;13.45;4.45;;;;;;;-4.75;88.05;99794.78;5051322;28;20071;-60
2024/01/02 04:56:22;;;;;;;16.92;5.43;;;;;;;-4.75;88.53;99810.94;5061080;28;20823;-60
2024/01/02 04:58:53;;;;;;;9.82;4.63;;;;;;;-4.84;89.37;99820.78;5050794;28;20052;-59
2024/01/02 05:01:23;;;;;;;12.98;5.10;;;;;;;-4.83;89.58;99808.13;5060831;28;20063;-61
2024/01/02 05:03:54;;;;;;;10.52;5.35;;;;;;;-4.68;89.71;99814.59;5046321;28;20044;-60
2024/01/02 05:06:24;;;;;;;11.60;5.15;;;;;;;-4.55;89.58;99815.09;5058231;28;20125;-60
2024/01/02 05:08:56;;;;;;;12.57;4.90;;;;;;;-4.42;89.26;99815.56;5050057;28;20061;-60
2024/01/02 05:11:27;;;;;;;12.35;5.40;;;;;;;-4.21;89.30;99815.47;5057311;28;20106;-60
2024/01/02 05:13:57;;;;;;;10.68;4.70;;;;;;;-4.18;88.45;99820.69;5050093;28;20051;-60
2024/01/02 05:16:28;;;;;;;7.22;4.30;;;;;;;-4.21;88.09;99815.47;5060453;28;20070;-61
2024/01/02 05:18:59;;;;;;;7.72;4.38;;;;;;;-4.23;87.36;99806.88;5038975;28;20147;-61
2024/01/02 05:21:29;;;;;;;9.88;4.20;;;;;;;-4.14;87.77;99807.22;5060645;28;20051;-60
2024/01/02 05:24:02;;;;;;;12.18;4.47;;;;;;;-4.04;87.92;99783.75;5050389;28;20642;-60
2024/01/02 05:26:32;;;;;;;11.25;4.80;;;;;;;-3.91;88.17;99788.47;5059732;28;20743;-60
2024/01/02 05:29:03;;;;;;;9.60;4.70;;;;;;;-3.72;88.12;99801.81;5041711;28;20490;-61
2024/01/02 05:31:33;;;;;;;8.90;4.45;;;;;;;-3.70;87.75;99812.97;5056857;28;20048;-61
2024/01/02 05:34:04;;;;;;;34.67;15.65;;;;;;;-3.90;86.40;99810.59;5049612;28;20101;-59
2024/01/02 05:36:34;;;;;;;12.65;5.32;;;;;;;-4.03;86.65;99830.56;5058987;28;20724;-61
2024/01/02 05:39:07;;;;;;;10.45;3.80;;;;;;;-4.39;87.19;99831.84;5060916;28;20085;-60
2024/01/02 05:41:38;;;;;;;180.43;87.78;;;;;;;-4.84;88.17;99836.97;5047260;28;20105;-60
2024/01/02 05:44:09;;;;;;;33.78;16.33;;;;;;;-4.98;89.19;99848.31;5060291;28;20056;-60
2024/01/02 05:46:39;;;;;;;332.05;160.77;;;;;;;-5.17;90.76;99850.94;5046348;28;20075;-60
2024/01/02 05:49:10;;;;;;;63.55;29.75;;;;;;;-5.34;93.52;99843.50;5060398;28;20044;-61
2024/01/02 05:51:40;;;;;;;114.35;54.88;;;;;;;-5.41;94.19;99851.69;5050322;28;20101;-59
2024/01/02 05:54:13;;;;;;;14.32;7.25;;;;;;;-5.47;94.92;99848.88;5060577;28;20044;-61
2024/01/02 05:56:43;;;;;;;22.45;9.73;;;;;;;-5.57;95.40;99862.03;5050500;28;20060;-59
2024/01/02 05:59:14;;;;;;;8.98;4.50;;;;;;;-5.61;95.71;99858.50;5059772;28;20155;-60
2024/01/02 06:01:44;;;;;;;6.90;3.38;;;;;;;-5.46;96.75;99863.38;5049411;28;20706;-60
2024/01/02 06:04:14;;;;;;;5.22;3.03;;;;;;;-5.36;96.74;99860.38;5053331;28;20044;-59
2024/01/02 06:06:45;;;;;;;7.75;3.35;;;;;;;-5.33;97.24;99863.06;5051834;28;20384;-59
2024/01/02 06:09:17;;;;;;;6.35;3.53;;;;;;;-5.32;97.42;99866.47;5060194;28;20056;-59
2024/01/02 06:11:47;;;;;;;6.78;3.58;;;;;;;-5.25;97.54;99861.66;5050262;28;20550;-59
2024/01/02 06:14:18;;;;;;;7.95;3.65;;;;;;;-5.22;97.53;99864.38;5058893;28;20135;-59
2024/01/02 06:16:48;;;;;;;8.68;5.38;;;;;;;-5.29;96.71;99877.66;5046013;28;20514;-60
2024/01/02 06:19:19;;;;;;;8.73;3.50;;;;;;;-5.33;96.97;99875.78;5054774;28;20142;-59
2024/01/02 06:21:50;;;;;;;4.72;2.78;;;;;;;-5.38;96.91;99872.19;5048194;28;20052;-59
2024/01/02 06:24:22;;;;;;;10.52;4.05;;;;;;;-5.50;96.65;99876.75;5059931;28;20488;-58
2024/01/02 06:26:53;;;;;;;7.60;4.25;;;;;;;-5.77;96.37;99881.56;5048941;28;20063;-59
2024/01/02 06:29:25;;;;;;;10.23;4.28;;;;;;;-6.00;97.14;99884.03;5057804;28;20048;-59
2024/01/02 06:31:55;;;;;;;10.35;4.30;;;;;;;-6.11;97.21;99891.19;5048461;28;20053;-58
2024/01/02 06:34:26;;;;;;;6.55;3.05;;;;;;;-6.23;97.70;99889.78;5058770;28;20052;-59
2024/01/02 06:36:57;;;;;;;9.40;3.55;;;;;;;-6.56;98.60;99865.44;5048271;28;20110;-59
2024/01/02 06:39:29;;;;;;;4.82;3.20;;;;;;;-6.47;99.39;99898.03;5059511;28;20044;-58
2024/01/02 06:42:00;;;;;;;6.28;3.35;;;;;;;-6.53;99.63;99897.75;5048955;28;20058;-58
2024/01/02 06:44:30;;;;;;;5.65;3.20;;;;;;;-6.59;100.00;99916.16;5057993;28;20142;-59
2024/01/02 06:47:01;;;;;;;7.20;3.58;;;;;;;-6.66;100.00;99909.03;5028232;28;20493;-59
2024/01/02 06:49:32;;;;;;;7.57;3.53;;;;;;;-6.70;100.00;99907.13;5038522;28;20049;-60
2024/01/02 06:52:02;;;;;;;4.68;2.53;;;;;;;-6.75;100.00;99903.50;5048620;28;20052;-60
2024/01/02 06:54:34;;;;;;;11.13;3.63;;;;;;;-6.79;100.00;99912.69;5058521;28;20156;-60
2024/01/02 06:57:05;;;;;;;10.13;4.72;;;;;;;-6.85;100.00;99906.41;5042091;28;20048;-60
2024/01/02 06:59:35;;;;;;;7.63;3.55;;;;;;;-6.84;100.00;99918.31;5051971;28;21207;-59
2024/01/02 07:02:06;;;;;;;9.02;3.38;;;;;;;-6.90;100.00;99918.91;5057761;28;20075;-59
2024/01/02 07:04:39;;;;;;;4.53;2.38;;;;;;;-6.98;100.00;99928.69;5046915;28;20044;-60
2024/01/02 07:07:09;;;;;;;5.03;2.80;;;;;;;-7.14;100.00;99903.34;5059207;28;20072;-60
2024/01/02 07:09:42;;;;;;;10.35;3.85;;;;;;;-7.03;100.00;99932.69;5048598;28;20054;-59
2024/01/02 07:12:12;;;;;;;3.75;2.95;;;;;;;-7.07;100.00;99930.78;5059359;28;20048;-60
2024/01/02 07:14:43;;;;;;;7.03;2.33;;;;;;;-7.07;100.00;99940.06;5048212;28;20089;-59
2024/01/02 07:17:15;;;;;;;3.78;2.38;;;;;;;-7.10;100.00;99940.78;5058733;28;20052;-60
2024/01/02 07:19:46;;;;;;;6.47;2.55;;;;;;;-7.17;100.00;99946.38;5047434;28;20162;-60
2024/01/02 07:22:16;;;;;;;4.28;2.70;;;;;;;-7.22;100.00;99945.28;5057625;28;20455;-61
2024/01/02 07:24:48;;;;;;;3.92;2.72;;;;;;;-7.25;100.00;99945.13;5048294;28;20509;-62
2024/01/02 07:27:19;;;;;;;4.95;2.38;;;;;;;-7.31;100.00;99945.72;5059451;28;20048;-61
2024/01/02 07:29:49;;;;;;;3.83;2.90;;;;;;;-7.31;100.00;99957.50;5048561;28;20730;-62
2024/01/02 07:32:20;;;;;;;3.67;2.60;;;;;;;-7.35;100.00;99948.00;5057661;28;20086;-61
2024/01/02 07:34:51;;;;;;;9.95;3.17;;;;;;;-7.43;100.00;99961.19;5046707;28;20048;-62
2024/01/02 07:37:21;;;;;;;6.18;2.58;;;;;;;-7.47;100.00;99949.13;5057370;28;20208;-62
2024/01/02 07:39:54;;;;;;;7.03;2.78;;;;;;;-7.40;100.00;99955.38;5047841;28;20098;-61
2024/01/02 07:42:24;;;;;;;2.30;1.92;;;;;;;-7.39;100.00;99967.28;5062217;28;20129;-60
2024/01/02 07:44:54;;;;;;;7.22;2.60;;;;;;;-7.39;100.00;99978.31;5048880;28;21678;-60
2024/01/02 07:47:25;;;;;;;4.65;2.30;;;;;;;-7.39;100.00;99973.25;5054425;28;20056;-61
2024/01/02 07:49:57;;;;;;;5.63;2.45;;;;;;;-7.39;100.00;99983.41;5044182;28;20060;-61
2024/01/02 07:52:27;;;;;;;4.95;2.58;;;;;;;-7.39;100.00;99985.03;5054892;28;20484;-60
2024/01/02 07:54:59;;;;;;;4.88;3.25;;;;;;;-7.40;100.00;99991.78;5048663;28;20527;-60
2024/01/02 07:57:30;;;;;;;5.55;3.10;;;;;;;-7.44;100.00;100000.06;5058276;28;20063;-60
2024/01/02 08:00:00;;;;;;;3.38;2.50;;;;;;;-7.51;100.00;99997.09;5050616;28;20055;-60
2024/01/02 08:02:31;;;;;;;6.07;3.03;;;;;;;-7.44;100.00;100000.06;5062248;28;20380;-61
2024/01/02 08:05:02;;;;;;;3.08;2.00;;;;;;;-7.49;100.00;100005.66;5044256;28;20052;-59
2024/01/02 08:07:32;;;;;;;5.07;2.70;;;;;;;-7.50;100.00;100009.88;5054742;28;20605;-60
2024/01/02 08:10:05;;;;;;;5.78;2.60;;;;;;;-7.49;100.00;100016.69;5044485;28;20430;-61
2024/01/02 08:12:35;;;;;;;5.53;2.42;;;;;;;-7.49;100.00;100010.75;5056218;28;20104;-58
2024/01/02 08:15:06;;;;;;;7.85;2.20;;;;;;;-7.56;100.00;100027.34;5057344;28;20439;-60
2024/01/02 08:17:37;;;;;;;4.05;2.30;;;;;;;-7.69;100.00;100037.63;5048345;28;20067;-61
2024/01/02 08:20:09;;;;;;;4.30;2.72;;;;;;;-7.77;100.00;100031.28;5061527;28;20492;-63
2024/01/02 08:22:39;;;;;;;2.90;2.17;;;;;;;-7.84;100.00;100038.59;5051731;28;20048;-60
2024/01/02 08:25:12;;;;;;;4.00;2.22;;;;;;;-7.88;100.00;100031.59;5062199;28;20102;-60
2024/01/02 08:27:42;;;;;;;2.60;2.28;;;;;;;-7.95;100.00;100034.59;5051261;28;20585;-60
2024/01/02 08:30:13;;;;;;;4.35;2.30;;;;;;;-7.97;100.00;100031.09;5061818;28;20048;-60
2024/01/02 08:32:44;;;;;;;3.10;2.03;;;;;;;-8.11;100.00;100010.06;5050405;28;20044;-59
2024/01/02 08:35:15;;;;;;;1.75;1.65;;;;;;;-7.98;100.00;100054.72;5061765;28;20071;-60
2024/01/02 08:37:46;;;;;;;2.10;1.90;;;;;;;-8.06;100.00;100050.91;5049142;28;20044;-59
2024/01/02 08:40:18;;;;;;;2.53;2.08;;;;;;;-8.14;100.00;100036.91;5059606;28;20395;-59
2024/01/02 08:42:48;;;;;;;2.80;2.55;;;;;;;-8.12;100.00;100061.56;5050591;28;20052;-60
2024/01/02 08:45:19;;;;;;;3.72;2.03;;;;;;;-8.15;100.00;100058.00;5061829;28;20480;-60
2024/01/02 08:47:50;;;;;;;4.07;2.20;;;;;;;-8.20;100.00;100061.94;5051303;28;20051;-60
2024/01/02 08:50:20;;;;;;;2.70;2.08;;;;;;;-8.16;100.00;100068.91;5061873;28;20056;-60
2024/01/02 08:52:52;;;;;;;3.35;2.30;;;;;;;-8.18;100.00;100078.09;5050899;28;20067;-60
2024/01/02 08:55:24;;;;;;;2.63;2.20;;;;;;;-8.23;100.00;100065.19;5061273;28;20044;-59
2024/01/02 08:57:54;;;;;;;4.63;2.60;;;;;;;-8.21;100.00;100075.38;5049018;28;20057;-59
2024/01/02 09:00:26;;;;;;;3.47;2.17;;;;;;;-8.23;100.00;100067.72;5059028;28;20058;-59
2024/01/02 09:02:56;;;;;;;3.97;2.30;;;;;;;-8.26;99.94;100073.50;5049763;28;20997;-60
2024/01/02 09:05:27;;;;;;;7.00;2.35;;;;;;;-8.27;99.96;100076.78;5060331;28;20396;-59
2024/01/02 09:07:59;;;;;;;2.42;2.10;;;;;;;-8.25;100.00;100080.28;5050600;28;20059;-60
2024/01/02 09:10:31;;;;;;;3.05;2.35;;;;;;;-8.25;100.00;100077.75;5060569;28;20059;-60
2024/01/02 09:13:02;;;;;;;3.10;2.33;;;;;;;-8.42;99.95;100050.63;5049538;28;20063;-60
2024/01/02 09:15:32;;;;;;;5.20;2.25;;;;;;;-8.25;99.78;100095.50;5058813;28;20743;-60
2024/01/02 09:18:03;;;;;;;3.05;2.50;;;;;;;-8.22;99.95;100083.78;5040932;28;20052;-61
2024/01/02 09:20:36;;;;;;;3.65;2.40;;;;;;;-8.23;99.72;100088.00;5060915;28;20066;-60
2024/01/02 09:23:07;;;;;;;4.85;2.50;;;;;;;-8.27;99.62;100094.53;5050399;28;20523;-60
2024/01/02 09:25:45;;;;;;;3.88;2.50;;;;;;;-8.30;99.45;100096.91;5050019;28;20047;-60
2024/01/02 09:28:17;;;;;;;4.72;1.95;;;;;;;-8.31;99.57;100102.78;5058493;28;20063;-59
2024/01/02 09:30:51;;;;;;;2.95;2.03;;;;;;;-8.29;99.60;100098.63;5048408;28;20056;-59
2024/01/02 09:33:23;;;;;;;4.30;2.40;;;;;;;-8.33;99.45;100100.94;5058729;28;20058;-60
2024/01/02 09:35:54;;;;;;;3.00;1.98;;;;;;;-8.35;99.43;100097.44;5049445;28;20052;-60
2024/01/02 09:38:24;;;;;;;3.72;2.55;;;;;;;-8.25;99.61;100109.84;5060041;28;20051;-60
2024/01/02 09:41:10;;;;;;;5.97;2.58;;;;;;;-8.25;99.29;100110.72;5050197;28;20900;-59
2024/01/02 09:43:51;;;;;;;4.30;2.40;;;;;;;-8.31;98.93;100095.16;5049798;28;20174;-60
2024/01/02 09:46:33;;;;;;;3.10;2.17;;;;;;;-8.37;98.41;100099.88;5060286;28;20048;-60
2024/01/02 09:49:21;;;;;;;5.25;2.50;;;;;;;-8.34;98.46;100115.25;5041993;28;20361;-60
2024/01/02 09:52:08;;;;;;;6.55;3.75;;;;;;;-8.38;97.79;100118.41;5050187;28;20105;-60
2024/01/02 09:54:49;;;;;;;7.07;3.63;;;;;;;-8.42;97.95;100121.59;5049677;28;20048;-60
2024/01/02 09:57:32;;;;;;;8.38;3.60;;;;;;;-8.55;97.45;100099.75;5060715;28;20491;-59
2024/01/02 10:00:07;;;;;;;7.95;4.15;;;;;;;-8.47;97.81;100118.78;5048638;28;20062;-60
2024/01/02 10:03:05;;;;;;;4.90;3.10;;;;;;;-8.49;97.45;100120.34;5049041;28;20141;-60
2024/01/02 10:05:59;;;;;;;7.63;3.10;;;;;;;-8.49;97.47;100119.50;5050287;28;20864;-60
2024/01/02 10:08:46;;;;;;;4.53;2.60;;;;;;;-8.52;97.28;100124.38;5058239;28;20052;-60
2024/01/02 10:11:27;;;;;;;5.07;2.88;;;;;;;-8.54;97.01;100131.03;5059765;28;20740;-59
2024/01/02 10:14:03;;;;;;;3.88;2.58;;;;;;;-8.58;96.89;100144.31;5049558;28;20059;-60
2024/01/02 10:16:40;;;;;;;2.95;2.40;;;;;;;-8.60;96.41;100130.69;5047984;28;20079;-60
2024/01/02 10:19:22;;;;;;;9.75;3.72;;;;;;;-8.63;95.43;100125.44;5056518;28;20170;-60
2024/01/02 10:22:01;;;;;;;8.38;4.15;;;;;;;-8.66;94.82;100130.31;5049587;28;20055;-60
2024/01/02 10:24:45;;;;;;;5.38;3.35;;;;;;;-8.68;94.18;100138.72;5059320;28;20477;-61
2024/01/02 10:27:23;;;;;;;8.05;2.60;;;;;;;-8.73;93.12;100137.56;5057774;28;20052;-60
2024/01/02 10:30:06;;;;;;;5.50;3.35;;;;;;;-8.76;93.03;100133.97;5049522;28;20363;-60
2024/01/02 10:32:50;;;;;;;5.63;3.30;;;;;;;-8.75;92.79;100131.53;5049417;28;20051;-59
2024/01/02 10:35:29;;;;;;;6.80;3.63;;;;;;;-8.77;92.14;100142.38;5060095;28;20075;-59
2024/01/02 10:38:09;;;;;;;4.32;2.92;;;;;;;-8.81;90.95;100136.25;5029849;28;20054;-60
2024/01/02 10:40:44;;;;;;;5.55;2.72;;;;;;;-8.86;90.05;100142.72;5029957;28;20113;-60
2024/01/02 10:43:26;;;;;;;4.53;2.83;;;;;;;-8.89;89.70;100147.56;5039541;28;20057;-60
2024/01/02 10:46:03;;;;;;;4.53;2.70;;;;;;;-8.91;89.09;100159.25;5029520;28;20615;-60
2024/01/02 10:48:49;;;;;;;5.43;2.63;;;;;;;-8.94;88.44;100159.09;5039623;28;20060;-60
2024/01/02 10:51:24;;;;;;;3.53;2.67;;;;;;;-8.96;88.32;100155.59;5039185;28;20143;-60
2024/01/02 10:54:04;;;;;;;5.88;2.85;;;;;;;-8.97;86.47;100159.78;5029012;28;20053;-60
2024/01/02 10:56:42;;;;;;;7.07;2.70;;;;;;;-8.95;86.08;100154.81;5036540;28;20139;-60
2024/01/02 10:59:30;;;;;;;5.43;2.67;;;;;;;-8.97;85.23;100159.78;5039940;28;20052;-60
2024/01/02 11:02:08;;;;;;;3.58;2.60;;;;;;;-8.96;85.40;100170.78;5049027;28;20044;-60
2024/01/02 11:04:48;;;;;;;5.78;2.67;;;;;;;-9.01;84.89;100162.03;5048912;28;20052;-60
2024/01/02 11:07:18;;;;;;;;;;;;;;;-9.04;84.63;100171.97;5057213;28;20048;-60
2024/01/02 11:09:56;;;;;;;3.40;2.65;;;;;;;-9.06;84.64;100168.47;5048943;28;20001;-60
2024/01/02 11:12:35;;;;;;;4.60;3.05;;;;;;;-9.08;84.40;100181.06;5059004;28;20048;-59
2024/01/02 11:15:11;;;;;;;5.45;2.88;;;;;;;-9.10;84.35;100185.16;5049709;28;20511;-60
2024/01/02 11:17:45;;;;;;;5.20;3.15;;;;;;;-9.12;84.42;100179.97;5050584;28;20044;-61
2024/01/02 11:20:21;;;;;;;9.27;2.97;;;;;;;-9.22;84.19;100192.88;5063486;28;20125;-60
2024/01/02 11:22:58;;;;;;;7.03;3.10;;;;;;;-9.20;84.10;100181.19;5032744;28;20115;-60
2024/01/02 11:25:34;;;;;;;5.78;2.83;;;;;;;-9.21;84.15;100184.50;5042217;28;20109;-60
2024/01/02 11:28:15;;;;;;;5.47;3.13;;;;;;;-9.62;84.16;100134.75;5053529;28;20044;-60
2024/01/02 11:30:52;;;;;;;5.85;3.95;;;;;;;-9.26;84.00;100196.00;5051659;28;20043;-60
2024/01/02 11:33:38;;;;;;;9.80;3.83;;;;;;;-9.26;83.95;100200.16;5063487;28;20683;-60
2024/01/02 11:36:24;;;;;;;8.00;3.65;;;;;;;-9.26;83.95;100206.13;5052242;28;20759;-60
2024/01/02 11:39:04;;;;;;;5.38;3.22;;;;;;;-9.32;83.92;100194.75;5050526;28;20061;-61
2024/01/02 11:41:55;;;;;;;8.95;3.75;;;;;;;-9.34;84.05;100197.16;5050667;28;20144;-60
2024/01/02 11:44:39;;;;;;;6.05;3.70;;;;;;;-9.39;83.97;100201.94;5062770;28;20066;-60
2024/01/02 11:47:24;;;;;;;6.28;3.80;;;;;;;-9.46;84.08;100211.59;5046168;28;20468;-60
2024/01/02 11:50:04;;;;;;;6.18;3.50;;;;;;;-9.56;83.58;100205.97;5052956;28;20063;-60